createdAt,value
2022-11-19T00:01:10.776Z,12.79
2022-11-19T00:03:39.013Z,12.82
2022-11-19T00:06:16.970Z,12.62
2022-11-19T00:08:44.272Z,12.87
2022-11-19T00:11:14.130Z,12.95
2022-11-19T00:13:42.825Z,13.05
2022-11-19T00:16:14.993Z,13.01
2022-11-19T00:18:41.516Z,13.07
2022-11-19T00:21:13.163Z,13.19
2022-11-19T00:23:40.560Z,13.18
2022-11-19T00:26:10.525Z,13.16
2022-11-19T00:28:37.828Z,13.13
2022-11-19T00:31:07.209Z,13.17
2022-11-19T00:33:34.230Z,13.12
2022-11-19T00:36:01.604Z,13.07
2022-11-19T00:38:29.436Z,13.02
2022-11-19T00:40:55.949Z,13.13
2022-11-19T00:43:41.285Z,12.98
2022-11-19T00:46:07.841Z,13.15
2022-11-19T00:48:34.742Z,13.13
2022-11-19T00:51:01.912Z,13.14
2022-11-19T00:53:28.784Z,13.06
2022-11-19T00:55:55.332Z,13.09
2022-11-19T00:58:21.874Z,13.03
2022-11-19T01:00:48.476Z,13.00
2022-11-19T01:03:15.040Z,13.11
2022-11-19T01:05:41.577Z,13.10
2022-11-19T01:08:08.197Z,13.14
2022-11-19T01:10:35.221Z,13.07
2022-11-19T01:13:20.261Z,13.07
2022-11-19T01:15:50.715Z,13.09
2022-11-19T01:18:18.390Z,12.98
2022-11-19T01:20:45.528Z,13.07
2022-11-19T01:23:12.096Z,12.94
2022-11-19T01:25:38.816Z,13.13
2022-11-19T01:28:05.656Z,13.05
2022-11-19T01:30:33.044Z,12.91
2022-11-19T01:32:59.588Z,13.16
2022-11-19T01:35:26.150Z,13.19
2022-11-19T01:37:53.069Z,13.24
2022-11-19T01:40:19.645Z,13.19
2022-11-19T01:42:54.009Z,13.26
2022-11-19T01:45:32.585Z,13.09
2022-11-19T01:48:24.747Z,13.18
2022-11-19T01:50:56.430Z,13.38
2022-11-19T01:53:29.091Z,13.23
2022-11-19T01:55:57.508Z,13.24
2022-11-19T01:58:25.296Z,13.30
2022-11-19T02:00:51.828Z,13.39
2022-11-19T02:03:19.000Z,13.36
2022-11-19T02:05:47.040Z,13.51
2022-11-19T02:08:44.639Z,13.57
2022-11-19T02:11:55.962Z,13.57
2022-11-19T02:14:38.500Z,13.48
2022-11-19T02:17:18.434Z,13.42
2022-11-19T02:20:09.313Z,13.21
2022-11-19T02:22:50.898Z,13.29
2022-11-19T02:25:51.369Z,13.41
2022-11-19T02:28:20.616Z,13.29
2022-11-19T02:30:52.275Z,13.21
2022-11-19T02:33:37.123Z,13.48
2022-11-19T02:36:16.881Z,13.47
2022-11-19T02:38:57.803Z,13.55
2022-11-19T02:41:35.921Z,13.46
2022-11-19T02:44:45.530Z,13.32
2022-11-19T02:47:22.586Z,13.38
2022-11-19T02:49:53.503Z,13.55
2022-11-19T02:52:20.680Z,13.52
2022-11-19T02:54:47.192Z,13.55
2022-11-19T02:57:14.205Z,13.40
2022-11-19T03:00:06.877Z,13.44
2022-11-19T03:02:59.934Z,13.49
2022-11-19T03:05:31.303Z,13.56
2022-11-19T03:07:58.432Z,13.49
2022-11-19T03:10:31.855Z,13.52
2022-11-19T03:13:28.226Z,13.43
2022-11-19T03:16:15.383Z,13.30
2022-11-19T03:18:44.628Z,13.15
2022-11-19T03:21:21.921Z,13.14
2022-11-19T03:23:57.684Z,13.05
2022-11-19T03:26:30.026Z,13.27
2022-11-19T03:29:01.424Z,13.28
2022-11-19T03:31:29.853Z,13.30
2022-11-19T03:34:01.562Z,13.40
2022-11-19T03:36:38.220Z,13.24
2022-11-19T03:39:09.588Z,13.30
2022-11-19T03:41:39.401Z,13.31
2022-11-19T03:44:16.463Z,13.35
2022-11-19T03:46:45.656Z,13.32
2022-11-19T03:49:13.916Z,13.42
2022-11-19T03:52:17.840Z,13.46
2022-11-19T03:54:44.899Z,13.40
2022-11-19T03:57:16.259Z,13.24
2022-11-19T03:59:42.760Z,13.28
2022-11-19T04:02:11.681Z,13.34
2022-11-19T04:04:38.932Z,13.35
2022-11-19T04:07:12.950Z,13.27
2022-11-19T04:09:41.012Z,13.41
2022-11-19T04:12:13.022Z,13.30
2022-11-19T04:14:39.648Z,13.35
2022-11-19T04:17:06.149Z,13.43
2022-11-19T04:19:32.690Z,13.36
2022-11-19T04:21:59.192Z,12.13
2022-11-19T04:24:25.740Z,12.84
2022-11-19T04:26:52.245Z,12.80
2022-11-19T04:29:19.238Z,12.58
2022-11-19T04:31:46.096Z,12.69
2022-11-19T04:34:12.691Z,12.84
2022-11-19T04:36:42.422Z,12.54
2022-11-19T04:39:10.079Z,12.56
2022-11-19T04:41:36.647Z,12.65
2022-11-19T04:44:03.193Z,12.41
2022-11-19T04:46:30.043Z,12.38
2022-11-19T04:48:57.274Z,12.59
2022-11-19T04:51:24.178Z,12.61
2022-11-19T04:53:51.014Z,12.53
2022-11-19T04:56:17.540Z,12.52
2022-11-19T04:58:44.120Z,12.01
2022-11-19T05:01:10.846Z,11.98
2022-11-19T05:03:37.371Z,12.19
2022-11-19T05:06:04.106Z,12.49
2022-11-19T05:08:30.667Z,12.52
2022-11-19T05:10:57.178Z,12.70
2022-11-19T05:13:23.943Z,12.90
2022-11-19T05:15:50.505Z,12.78
2022-11-19T05:18:17.129Z,12.82
2022-11-19T05:20:43.705Z,12.69
2022-11-19T05:23:10.649Z,12.56
2022-11-19T05:25:37.278Z,12.47
2022-11-19T05:28:03.892Z,12.42
2022-11-19T05:30:30.449Z,12.46
2022-11-19T05:32:56.997Z,12.61
2022-11-19T05:35:23.909Z,12.47
2022-11-19T05:37:51.005Z,12.51
2022-11-19T05:40:18.601Z,12.68
2022-11-19T05:42:45.358Z,12.71
2022-11-19T05:45:12.565Z,12.51
2022-11-19T05:47:40.111Z,12.73
2022-11-19T05:50:09.737Z,12.37
2022-11-19T05:52:36.597Z,12.36
2022-11-19T05:55:03.976Z,12.24
2022-11-19T05:57:30.465Z,12.09
2022-11-19T05:59:56.980Z,12.03
2022-11-19T06:02:23.584Z,11.94
2022-11-19T06:04:50.166Z,11.73
2022-11-19T06:07:16.783Z,11.87
2022-11-19T06:09:43.392Z,12.12
2022-11-19T06:12:09.888Z,12.04
2022-11-19T06:14:36.388Z,12.16
2022-11-19T06:17:02.910Z,12.22
2022-11-19T06:19:29.465Z,12.12
2022-11-19T06:21:55.964Z,12.11
2022-11-19T06:24:22.549Z,12.31
2022-11-19T06:26:49.152Z,12.39
2022-11-19T06:29:17.214Z,12.50
2022-11-19T06:31:44.054Z,12.40
2022-11-19T06:34:10.640Z,12.54
2022-11-19T06:36:41.804Z,12.61
2022-11-19T06:39:10.838Z,12.62
2022-11-19T06:41:37.369Z,12.38
2022-11-19T06:44:04.394Z,12.71
2022-11-19T06:46:30.948Z,12.78
2022-11-19T06:48:57.451Z,12.77
2022-11-19T06:51:24.679Z,12.89
2022-11-19T06:53:51.372Z,12.97
2022-11-19T06:56:17.875Z,13.04
2022-11-19T06:58:44.372Z,13.00
2022-11-19T07:01:10.985Z,13.07
2022-11-19T07:03:37.539Z,13.06
2022-11-19T07:06:04.847Z,13.00
2022-11-19T07:08:34.370Z,13.04
2022-11-19T07:11:02.111Z,12.76
2022-11-19T07:13:48.600Z,12.76
2022-11-19T07:16:15.229Z,12.33
2022-11-19T07:18:41.758Z,12.62
2022-11-19T07:21:08.257Z,12.66
2022-11-19T07:23:34.735Z,12.66
2022-11-19T07:26:01.650Z,12.97
2022-11-19T07:28:28.138Z,13.09
2022-11-19T07:30:54.858Z,12.82
2022-11-19T07:33:21.398Z,13.02
2022-11-19T07:35:47.985Z,13.18
2022-11-19T07:38:14.490Z,13.29
2022-11-19T07:40:41.000Z,13.38
2022-11-19T07:43:07.514Z,13.29
2022-11-19T07:45:37.047Z,13.42
2022-11-19T07:48:03.724Z,13.44
2022-11-19T07:50:30.264Z,13.50
2022-11-19T07:52:59.475Z,13.42
2022-11-19T07:55:26.031Z,13.20
2022-11-19T07:57:55.417Z,13.42
2022-11-19T08:00:22.028Z,13.49
2022-11-19T08:02:49.950Z,13.57
2022-11-19T08:05:17.121Z,13.54
2022-11-19T08:07:44.061Z,13.74
2022-11-19T08:10:11.457Z,13.77
2022-11-19T08:12:37.968Z,13.52
2022-11-19T08:15:05.031Z,13.77
2022-11-19T08:17:49.882Z,13.97
2022-11-19T08:20:17.407Z,14.27
2022-11-19T08:22:43.987Z,14.31
2022-11-19T08:25:10.523Z,14.52
2022-11-19T08:27:38.192Z,14.93
2022-11-19T08:30:05.115Z,14.45
2022-11-19T08:32:31.632Z,15.04
2022-11-19T08:34:58.191Z,14.90
2022-11-19T08:37:24.704Z,14.92
2022-11-19T08:39:51.624Z,14.43
2022-11-19T08:42:36.673Z,14.93
2022-11-19T08:45:03.764Z,15.03
2022-11-19T08:47:30.278Z,14.55
2022-11-19T08:49:57.646Z,14.56
2022-11-19T08:52:24.160Z,14.77
2022-11-19T08:54:50.917Z,15.19
2022-11-19T08:57:17.417Z,15.43
2022-11-19T08:59:43.988Z,15.17
2022-11-19T09:02:11.266Z,14.86
2022-11-19T09:04:37.871Z,14.85
2022-11-19T09:07:04.411Z,15.26
2022-11-19T09:09:31.048Z,15.65
2022-11-19T09:11:57.597Z,16.19
2022-11-19T09:14:24.153Z,16.51
2022-11-19T09:16:50.650Z,16.57
2022-11-19T09:19:17.225Z,16.41
2022-11-19T09:21:43.733Z,16.54
2022-11-19T09:24:10.279Z,16.45
2022-11-19T09:26:36.761Z,16.22
2022-11-19T09:29:03.326Z,16.20
2022-11-19T09:31:29.861Z,15.96
2022-11-19T09:36:23.046Z,15.45
2022-11-19T09:38:49.565Z,15.57
2022-11-19T09:42:06.977Z,15.87
2022-11-19T09:45:06.309Z,15.40
2022-11-19T09:47:54.476Z,15.58
2022-11-19T09:50:28.436Z,15.87
2022-11-19T09:52:58.481Z,15.70
2022-11-19T09:55:34.457Z,15.11
2022-11-19T09:58:05.887Z,15.27
2022-11-19T10:00:33.254Z,15.25
2022-11-19T10:03:11.184Z,15.13
2022-11-19T10:06:06.752Z,15.39
2022-11-19T10:08:49.797Z,14.92
2022-11-19T10:11:34.852Z,14.84
2022-11-19T10:14:22.875Z,15.05
2022-11-19T10:17:09.525Z,15.17
2022-11-19T10:19:49.090Z,14.58
2022-11-19T10:22:43.546Z,15.11
2022-11-19T10:25:18.976Z,15.49
2022-11-19T10:27:57.209Z,14.88
2022-11-19T10:30:26.234Z,15.11
2022-11-19T10:33:33.935Z,14.86
2022-11-19T10:36:11.704Z,15.20
2022-11-19T10:38:40.966Z,15.01
2022-11-19T10:41:29.532Z,15.09
2022-11-19T10:44:01.611Z,14.75
2022-11-19T10:46:29.244Z,15.07
2022-11-19T10:48:58.981Z,15.46
2022-11-19T10:51:30.597Z,15.41
2022-11-19T10:53:57.762Z,15.44
2022-11-19T10:56:39.348Z,15.24
2022-11-19T10:59:13.200Z,14.92
2022-11-19T11:01:45.398Z,14.86
2022-11-19T11:04:17.340Z,15.45
2022-11-19T11:06:55.929Z,14.95
2022-11-19T11:09:30.881Z,14.86
2022-11-19T11:12:19.679Z,15.46
2022-11-19T11:14:54.047Z,15.07
2022-11-19T11:17:31.525Z,15.57
2022-11-19T11:20:24.185Z,15.88
2022-11-19T11:23:02.753Z,15.37
2022-11-19T11:25:29.543Z,15.47
2022-11-19T11:28:12.862Z,15.95
2022-11-19T11:30:53.399Z,15.71
2022-11-19T11:33:38.466Z,16.17
2022-11-19T11:36:06.961Z,15.69
2022-11-19T11:38:43.880Z,15.81
2022-11-19T11:44:28.391Z,16.19
2022-11-19T11:47:10.359Z,16.17
2022-11-19T11:49:40.274Z,16.34
2022-11-19T11:52:07.025Z,16.40
2022-11-19T11:54:33.665Z,15.98
2022-11-19T11:57:19.034Z,16.04
2022-11-19T11:59:45.802Z,16.20
2022-11-19T12:02:23.269Z,16.11
2022-11-19T12:04:51.028Z,15.43
2022-11-19T12:07:37.449Z,15.73
2022-11-19T12:10:25.683Z,16.39
2022-11-19T12:12:58.228Z,15.87
2022-11-19T12:15:37.007Z,16.29
2022-11-19T12:18:36.356Z,16.79
2022-11-19T12:21:17.490Z,17.24
2022-11-19T12:24:18.654Z,16.60
2022-11-19T12:27:21.848Z,16.11
2022-11-19T12:30:14.604Z,16.21
2022-11-19T12:32:50.001Z,16.06
2022-11-19T12:35:25.472Z,16.74
2022-11-19T12:38:18.962Z,16.82
2022-11-19T12:40:54.367Z,16.82
2022-11-19T12:43:45.600Z,16.64
2022-11-19T12:46:28.395Z,15.99
2022-11-19T12:49:20.617Z,15.86
2022-11-19T12:52:11.757Z,17.42
2022-11-19T12:55:21.680Z,18.21
2022-11-19T12:58:00.905Z,17.41
2022-11-19T13:00:30.174Z,17.10
2022-11-19T13:03:14.870Z,17.02
2022-11-19T13:05:50.749Z,16.97
2022-11-19T13:08:30.800Z,16.97
2022-11-19T13:11:09.131Z,16.36
2022-11-19T13:13:39.626Z,16.29
2022-11-19T13:16:12.419Z,16.44
2022-11-19T13:18:44.195Z,16.06
2022-11-19T13:21:25.881Z,15.69
2022-11-19T13:23:53.943Z,15.90
2022-11-19T13:26:25.736Z,16.08
2022-11-19T13:29:20.520Z,16.24
2022-11-19T13:32:01.912Z,16.27
2022-11-19T13:34:47.147Z,16.06
2022-11-19T13:37:22.311Z,16.00
2022-11-19T13:40:01.071Z,16.10
2022-11-19T13:42:58.956Z,16.12
2022-11-19T13:45:39.501Z,16.19
2022-11-19T13:48:22.214Z,16.18
2022-11-19T13:50:52.260Z,16.15
2022-11-19T13:53:24.552Z,16.29
2022-11-19T13:55:56.135Z,16.02
2022-11-19T13:58:33.362Z,15.63
2022-11-19T14:01:26.341Z,15.49
2022-11-19T14:04:02.885Z,15.29
2022-11-19T14:06:41.548Z,15.59
2022-11-19T14:09:47.895Z,15.45
2022-11-19T14:12:35.780Z,14.96
2022-11-19T14:15:51.940Z,15.39
2022-11-19T14:18:50.186Z,15.41
2022-11-19T14:21:44.425Z,15.34
2022-11-19T14:24:44.704Z,15.40
2022-11-19T14:27:44.136Z,15.78
2022-11-19T14:30:16.256Z,15.89
2022-11-19T14:32:47.446Z,15.97
2022-11-19T14:35:26.361Z,16.23
2022-11-19T14:37:58.853Z,16.42
2022-11-19T14:40:28.269Z,16.59
2022-11-19T14:43:19.405Z,16.55
2022-11-19T14:46:01.644Z,16.78
2022-11-19T14:48:40.547Z,16.87
2022-11-19T14:51:12.743Z,17.02
2022-11-19T14:53:52.010Z,16.59
2022-11-19T14:56:21.573Z,16.32
2022-11-19T14:58:54.182Z,15.90
2022-11-19T15:01:22.387Z,15.97
2022-11-19T15:03:55.191Z,15.81
2022-11-19T15:06:22.314Z,15.87
2022-11-19T15:08:52.081Z,15.76
2022-11-19T15:11:20.179Z,15.61
2022-11-19T15:13:48.489Z,15.61
2022-11-19T15:16:25.025Z,15.70
2022-11-19T15:19:13.269Z,15.64
2022-11-19T15:22:00.874Z,15.54
2022-11-19T15:24:49.020Z,15.44
2022-11-19T15:27:30.798Z,15.50
2022-11-19T15:30:23.460Z,15.60
2022-11-19T15:33:08.528Z,15.23
2022-11-19T15:36:15.994Z,15.22
2022-11-19T15:38:48.420Z,15.14
2022-11-19T15:41:21.503Z,15.02
2022-11-19T15:43:55.696Z,15.11
2022-11-19T15:46:34.871Z,15.33
2022-11-19T15:49:10.106Z,15.19
2022-11-19T15:51:53.211Z,15.15
2022-11-19T15:54:27.716Z,15.16
2022-11-19T15:56:59.211Z,15.11
2022-11-19T15:59:27.316Z,15.32
2022-11-19T16:02:02.205Z,15.38
2022-11-19T16:04:38.757Z,15.32
2022-11-19T16:07:08.722Z,15.31
2022-11-19T16:09:36.431Z,15.37
2022-11-19T16:12:22.093Z,15.28
2022-11-19T16:15:11.513Z,15.39
2022-11-19T16:17:45.905Z,15.19
2022-11-19T16:20:24.539Z,15.18
2022-11-19T16:22:56.191Z,15.25
2022-11-19T16:25:22.700Z,15.27
2022-11-19T16:27:49.293Z,15.07
2022-11-19T16:30:25.169Z,14.94
2022-11-19T16:32:51.848Z,15.13
2022-11-19T16:35:36.588Z,15.07
2022-11-19T16:38:03.294Z,15.02
2022-11-19T16:40:52.678Z,15.15
2022-11-19T16:43:20.008Z,15.07
2022-11-19T16:45:46.935Z,15.05
2022-11-19T16:48:38.373Z,14.91
2022-11-19T16:51:29.818Z,14.95
2022-11-19T16:53:56.355Z,14.83
2022-11-19T16:56:23.666Z,14.85
2022-11-19T16:58:56.388Z,14.80
2022-11-19T17:01:26.680Z,14.97
2022-11-19T17:06:42.809Z,14.94
2022-11-19T17:09:29.830Z,14.97
2022-11-19T17:12:14.936Z,14.95
2022-11-19T17:14:51.073Z,14.67
2022-11-19T17:17:29.776Z,14.67
2022-11-19T17:19:57.813Z,14.77
2022-11-19T17:22:31.272Z,14.60
2022-11-19T17:24:58.359Z,14.52
2022-11-19T17:27:37.049Z,14.66
2022-11-19T17:30:16.184Z,14.76
2022-11-19T17:32:47.867Z,14.91
2022-11-19T17:35:40.603Z,14.79
2022-11-19T17:38:17.762Z,14.81
2022-11-19T17:40:50.340Z,14.70
2022-11-19T17:43:41.007Z,14.74
2022-11-19T17:46:07.602Z,14.67
2022-11-19T17:48:34.528Z,14.66
2022-11-19T17:51:01.102Z,14.35
2022-11-19T17:53:27.609Z,14.15
2022-11-19T17:55:56.300Z,14.15
2022-11-19T17:58:23.058Z,13.86
2022-11-19T18:00:50.059Z,13.78
2022-11-19T18:03:17.725Z,13.75
2022-11-19T18:05:48.824Z,13.77
2022-11-19T18:08:16.163Z,13.58
2022-11-19T18:10:45.357Z,13.71
2022-11-19T18:13:14.503Z,13.48
2022-11-19T18:15:41.081Z,13.49
2022-11-19T18:18:07.669Z,13.60
2022-11-19T18:20:34.321Z,13.37
2022-11-19T18:23:01.044Z,13.35
2022-11-19T18:25:27.692Z,13.40
2022-11-19T18:28:00.994Z,12.91
2022-11-19T18:30:29.233Z,12.80
2022-11-19T18:33:01.805Z,12.70
2022-11-19T18:35:36.576Z,12.70
2022-11-19T18:38:07.250Z,12.81
2022-11-19T18:40:48.008Z,12.94
2022-11-19T18:43:39.971Z,12.92
2022-11-19T18:46:12.010Z,13.14
2022-11-19T18:48:38.631Z,12.99
2022-11-19T18:51:05.716Z,12.97
2022-11-19T18:53:32.214Z,13.00
2022-11-19T18:55:58.974Z,13.05
2022-11-19T18:58:26.977Z,13.01
2022-11-19T19:00:53.467Z,13.16
2022-11-19T19:03:19.973Z,13.23
2022-11-19T19:05:46.488Z,13.03
2022-11-19T19:08:14.018Z,13.22
2022-11-19T19:10:41.460Z,13.39
2022-11-19T19:13:08.089Z,13.31
2022-11-19T19:15:34.607Z,13.38
2022-11-19T19:18:06.459Z,13.35
2022-11-19T19:20:34.140Z,13.28
2022-11-19T19:23:00.751Z,13.26
2022-11-19T19:25:27.313Z,13.35
2022-11-19T19:27:53.876Z,13.38
2022-11-19T19:30:20.397Z,13.36
2022-11-19T19:32:47.051Z,13.31
2022-11-19T19:35:13.594Z,13.36
2022-11-19T19:37:41.756Z,13.39
2022-11-19T19:40:09.230Z,13.43
2022-11-19T19:42:40.906Z,13.46
2022-11-19T19:45:08.233Z,13.44
2022-11-19T19:47:35.117Z,13.33
2022-11-19T19:50:01.841Z,13.38
2022-11-19T19:52:28.366Z,13.34
2022-11-19T19:54:54.903Z,13.48
2022-11-19T19:57:21.585Z,13.36
2022-11-19T19:59:48.136Z,13.41
2022-11-19T20:02:15.753Z,13.35
2022-11-19T20:04:42.344Z,13.21
2022-11-19T20:07:08.979Z,13.29
2022-11-19T20:09:35.565Z,13.30
2022-11-19T20:12:02.089Z,13.40
2022-11-19T20:14:28.682Z,13.47
2022-11-19T20:16:55.246Z,13.40
2022-11-19T20:19:22.151Z,13.42
2022-11-19T20:21:49.016Z,13.44
2022-11-19T20:24:17.235Z,13.40
2022-11-19T20:26:43.897Z,13.49
2022-11-19T20:29:13.192Z,13.45
2022-11-19T20:31:40.927Z,13.32
2022-11-19T20:34:07.557Z,13.21
2022-11-19T20:36:35.977Z,13.08
2022-11-19T20:39:02.714Z,12.99
2022-11-19T20:41:47.836Z,13.12
2022-11-19T20:44:22.586Z,13.12
2022-11-19T20:46:50.931Z,12.91
2022-11-19T20:49:19.016Z,12.91
2022-11-19T20:51:46.051Z,12.95
2022-11-19T20:54:13.539Z,12.60
2022-11-19T20:56:40.807Z,12.76
2022-11-19T20:59:08.172Z,12.45
2022-11-19T21:01:35.816Z,12.61
2022-11-19T21:04:02.403Z,12.65
2022-11-19T21:06:29.076Z,12.64
2022-11-19T21:08:56.170Z,12.67
2022-11-19T21:11:22.864Z,12.67
2022-11-19T21:13:49.415Z,12.72
2022-11-19T21:16:20.895Z,12.84
2022-11-19T21:18:47.730Z,12.74
2022-11-19T21:21:15.846Z,12.88
2022-11-19T21:23:43.099Z,12.97
2022-11-19T21:26:16.428Z,12.92
2022-11-19T21:28:48.312Z,13.06
2022-11-19T21:31:16.274Z,12.85
2022-11-19T21:33:42.961Z,12.71
2022-11-19T21:36:10.237Z,12.75
2022-11-19T21:38:36.745Z,12.96
2022-11-19T21:41:03.270Z,13.00
2022-11-19T21:43:30.174Z,12.94
2022-11-19T21:45:57.343Z,12.76
2022-11-19T21:48:24.985Z,13.03
2022-11-19T21:50:52.557Z,13.04
2022-11-19T21:53:19.611Z,13.12
2022-11-19T21:55:46.445Z,13.05
2022-11-19T21:58:14.933Z,13.07
2022-11-19T22:00:42.241Z,13.09
2022-11-19T22:03:08.972Z,12.90
2022-11-19T22:05:35.490Z,12.96
2022-11-19T22:08:02.286Z,12.93
2022-11-19T22:10:29.564Z,13.08
2022-11-19T22:12:59.126Z,12.64
2022-11-19T22:15:26.573Z,12.80
2022-11-19T22:17:53.730Z,13.00
2022-11-19T22:20:20.316Z,12.72
2022-11-19T22:22:46.949Z,12.82
2022-11-19T22:25:14.133Z,12.64
2022-11-19T22:27:41.672Z,12.78
2022-11-19T22:30:09.985Z,12.96
2022-11-19T22:32:36.567Z,12.86
2022-11-19T22:35:03.472Z,12.80
2022-11-19T22:37:29.966Z,12.90
2022-11-19T22:39:56.499Z,12.85
2022-11-19T22:42:23.005Z,12.75
2022-11-19T22:44:49.552Z,12.58
2022-11-19T22:47:16.059Z,12.82
2022-11-19T22:49:44.083Z,12.84
2022-11-19T22:52:10.613Z,12.66
2022-11-19T22:54:41.362Z,12.82
2022-11-19T22:57:17.135Z,12.76
2022-11-19T22:59:50.324Z,12.75
2022-11-19T23:02:28.692Z,12.78
2022-11-19T23:04:56.524Z,12.75
2022-11-19T23:07:29.755Z,12.66
2022-11-19T23:09:56.746Z,12.76
2022-11-19T23:12:51.132Z,12.55
2022-11-19T23:15:59.324Z,12.82
2022-11-19T23:18:57.853Z,12.86
2022-11-19T23:21:44.875Z,12.84
2022-11-19T23:24:20.395Z,13.01
2022-11-19T23:26:46.916Z,13.18
2022-11-19T23:29:13.420Z,13.12
2022-11-19T23:31:40.409Z,13.02
2022-11-19T23:34:07.354Z,12.93
2022-11-19T23:36:36.749Z,12.78
2022-11-19T23:39:05.303Z,12.95
2022-11-19T23:41:33.734Z,13.02
2022-11-19T23:44:00.915Z,12.94
2022-11-19T23:46:31.678Z,12.87
2022-11-19T23:48:59.471Z,13.09
2022-11-19T23:51:29.005Z,13.12
2022-11-19T23:53:55.733Z,13.15
2022-11-19T23:56:24.029Z,13.30
2022-11-19T23:58:50.713Z,13.24
